Flight Track Log - Related Links

Times and Time Zones

All times are in EDT time to prevent confusion due to time zone crossing. See the N866TC flight status page for this flight to view local times or setup timezone preferences in your user account.

Time Position Orientation Groundspeed Altitude Reporting Facility
EDT Latitude Longitude Course Direction KTS MPH feet Rate Location/Type
Thu 06:47:30 PM 38.8667 -94.6833 66° East 202 232 3,700  Level Kansas City TRACON
Thu 06:48:38 PM 38.8064 -94.6414 152° Southeast 228 262 6,100 3,692 Climbing Kansas City Center
Thu 06:49:40 PM 38.7372 -94.6211 167° South 234 269 11,700 4,403 Climbing Kansas City Center
Thu 06:50:42 PM 38.6692 -94.5678 149° Southeast 294 338 15,200 3,484 Climbing Kansas City Center
Thu 06:51:44 PM 38.5844 -94.4994 148° Southeast 323 372 18,900 2,661 Climbing Kansas City Center
Thu 06:52:46 PM 38.5011 -94.4344 149° Southeast 365 420 20,700 1,548 Climbing Kansas City Center
Thu 06:53:48 PM 38.3961 -94.3492 148° Southeast 403 464 22,100 1,113 Climbing Kansas City Center
Thu 06:54:50 PM 38.3025 -94.2761 149° Southeast 411 473 23,000 435 Climbing Kansas City Center
Thu 06:55:52 PM 38.1961 -94.1928 148° Southeast 404 465 23,000  Level Kansas City Center
Thu 06:56:54 PM 38.1033 -94.1208 149° Southeast 406 467 23,000  Level Kansas City Center
Thu 06:57:56 PM 38.0103 -94.0467 148° Southeast 411 473 23,000 -48 Level Kansas City Center
Thu 06:58:58 PM 37.8950 -93.9592 149° Southeast 405 466 22,900 -1,065 Descending Kansas City Center
Thu 07:00:00 PM 37.7986 -93.8833 148° Southeast 406 467 20,800 -2,226 Descending Kansas City Center
Thu 07:01:02 PM 37.7042 -93.8103 149° Southeast 401 461 18,300 -2,516 Descending Kansas City Center
Thu 07:02:04 PM 37.6142 -93.7383 148° Southeast 387 445 15,600 -2,640 Descending Kansas City Center
Thu 07:03:07 PM 37.5256 -93.6703 149° Southeast 380 437 12,800 -2,640 Descending Kansas City Center
Thu 07:04:09 PM 37.4447 -93.6086 149° Southeast 358 412 10,100 -2,855 Descending Kansas City Center
Thu 07:05:11 PM 37.3594 -93.5422 148° Southeast 322 371 6,900 -2,806 Descending Kansas City Center
Thu 07:06:13 PM 37.2922 -93.4925 150° Southeast 300 345 4,300 -2,129 Descending Kansas City Center
Thu 07:07:15 PM 37.2317 -93.4433 147° Southeast 285 328 2,500 -919 Descending Kansas City Center
Thu 07:08:17 PM 37.1828 -93.3969 143° Southeast 276 318 2,400 -97 Descending Kansas City Center
Thu 07:10:00 PM 37.2333 -93.3833 158° South  Level FlightAware Approximate
Thu 07:17:00 PM 37.2457 -93.3886 158° South  Level Estimated
Thu 07:18:00 PM 37.2457 -93.3886 158° South  Level Estimated
Thu 07:19:00 PM 37.2457 -93.3886 158° South  Level Estimated

Login

Don't have an account? Register now (free) for customized features, flight alerts, and more!